Time;durP1;ratioP1;P1;durP2;ratioP2;P2;SDS_P1;SDS_P2;PMS_P1;PMS_P2;Temp;Humidity;BMP_temperature;BMP_pressure;BME280_temperature;BME280_humidity;BME280_pressure;Samples;Min_cycle;Max_cycle;Signal;HPM_P1;HPM_P2
2022/10/04 00:01:29;;;;;;;;;;;;;;;15.45;49.19;99435.09;4483485;32;34938;-88
2022/10/04 00:04:04;;;;;;;;;;;;;;;15.92;48.77;99427.13;4483253;32;34061;-89
2022/10/04 00:06:31;;;;;;;;;;;;;;;15.65;49.61;99415.03;4468925;32;33798;-83
2022/10/04 00:09:13;;;;;;;;;;;;;;;16.28;48.03;99418.19;4482177;32;32951;-87
2022/10/04 00:11:44;;;;;;;;;;;;;;;15.80;49.03;99422.81;4469109;32;33877;-86
2022/10/04 00:14:16;;;;;;;;;;;;;;;15.47;50.01;99413.31;4469092;32;35054;-85
2022/10/04 00:16:43;;;;;;;;;;;;;;;15.25;50.27;99427.28;4468943;32;33900;-85
2022/10/04 00:19:12;;;;;;;;;;;;;;;14.70;51.86;99424.72;4482677;32;32917;-85
2022/10/04 00:21:52;;;;;;;;;;;;;;;15.00;51.39;99437.78;4483250;32;33691;-85
2022/10/04 00:24:19;;;;;;;;;;;;;;;14.78;51.71;99420.41;4482864;32;33712;-84
2022/10/04 00:26:47;;;;;;;;;;;;;;;15.24;50.85;99433.41;4468723;32;34771;-84
2022/10/04 00:29:34;;;;;;;;;;;;;;;14.87;51.74;99423.00;4482703;32;33995;-86
2022/10/04 00:32:10;;;;;;;;;;;;;;;14.95;51.52;99428.22;4480329;32;33690;-85
2022/10/04 00:34:46;;;;;;;;;;;;;;;14.86;51.91;99431.69;4480357;32;32911;-85
2022/10/04 00:37:14;;;;;;;;;;;;;;;15.44;50.67;99425.50;4483207;32;34132;-86
2022/10/04 00:39:42;;;;;;;;;;;;;;;15.06;51.76;99422.09;4482592;32;33183;-85
2022/10/04 00:42:28;;;;;;;;;;;;;;;15.11;51.14;99421.22;4483467;32;34947;-84
2022/10/04 00:44:59;;;;;;;;;;;;;;;16.19;48.62;99422.63;4482336;32;35099;-85
2022/10/04 00:47:30;;;;;;;;;;;;;;;15.14;51.45;99421.22;4468366;32;35311;-88
2022/10/04 00:50:01;;;;;;;;;;;;;;;14.75;52.38;99417.78;4482604;32;33640;-84
2022/10/04 00:52:29;;;;;;;;;;;;;;;15.01;51.77;99418.62;4469008;32;33987;-87
2022/10/04 00:54:57;;;;;;;;;;;;;;;15.65;50.37;99415.03;4482689;32;33935;-86
2022/10/04 00:57:31;;;;;;;;;;;;;;;15.73;50.10;99410.62;4482511;32;34832;-84
2022/10/04 01:00:03;;;;;;;;;;;;;;;16.43;48.18;99411.97;4482320;32;33187;-85
2022/10/04 01:02:31;;;;;;;;;;;;;;;16.11;48.47;99416.56;4483004;32;34598;-84
2022/10/04 01:04:59;;;;;;;;;;;;;;;16.07;48.89;99407.00;4468017;32;35506;-87
2022/10/04 01:07:27;;;;;;;;;;;;;;;16.07;49.13;99412.22;4467736;32;35125;-86
2022/10/04 01:09:56;;;;;;;;;;;;;;;15.55;50.40;99414.16;4482932;32;33882;-86
2022/10/04 01:12:23;;;;;;;;;;;;;;;14.90;52.24;99422.13;4467669;32;34799;-88
2022/10/04 01:14:53;;;;;;;;;;;;;;;16.27;48.71;99423.44;4482467;32;35131;-85
2022/10/04 01:17:21;;;;;;;;;;;;;;;16.81;47.17;99418.69;4482456;32;34000;-85
2022/10/04 01:19:48;;;;;;;;;;;;;;;15.51;50.50;99411.56;4482407;32;34017;-86
2022/10/04 01:22:32;;;;;;;;;;;;;;;15.63;50.26;99400.19;4468056;32;34157;-87
2022/10/04 01:25:00;;;;;;;;;;;;;;;15.15;51.76;99404.66;4482171;32;35255;-88
2022/10/04 01:27:30;;;;;;;;;;;;;;;15.35;51.37;99405.50;4480575;32;34740;-84
2022/10/04 01:29:57;;;;;;;;;;;;;;;14.44;53.42;99402.09;4482726;32;33177;-85
2022/10/04 01:32:25;;;;;;;;;;;;;;;14.86;52.66;99400.38;4481873;32;32615;-85
2022/10/04 01:34:52;;;;;;;;;;;;;;;14.83;52.66;99409.06;4481877;32;34324;-86
2022/10/04 01:37:19;;;;;;;;;;;;;;;14.26;54.27;99408.13;4482145;32;34048;-88
2022/10/04 01:39:46;;;;;;;;;;;;;;;14.95;52.77;99405.56;4467928;32;33982;-88
2022/10/04 01:42:14;;;;;;;;;;;;;;;14.64;53.38;99401.25;4467903;32;34909;-85
2022/10/04 01:44:48;;;;;;;;;;;;;;;15.37;51.42;99401.13;4482211;32;34280;-85
2022/10/04 01:47:22;;;;;;;;;;;;;;;15.58;50.99;99402.81;4468135;32;34162;-85
2022/10/04 01:49:50;;;;;;;;;;;;;;;15.03;52.65;99408.19;4481950;32;34119;-88
2022/10/04 01:52:17;;;;;;;;;;;;;;;16.02;49.84;99420.97;4467679;32;34809;-87
2022/10/04 01:54:46;;;;;;;;;;;;;;;15.28;52.01;99422.94;4481499;32;35188;-85
2022/10/04 01:57:13;;;;;;;;;;;;;;;15.86;50.18;99419.28;4468238;32;33664;-85
2022/10/04 01:59:51;;;;;;;;;;;;;;;15.71;50.80;99419.34;4481543;32;33017;-88
2022/10/04 02:02:18;;;;;;;;;;;;;;;16.49;48.75;99421.53;4467162;32;34581;-85
2022/10/04 02:04:48;;;;;;;;;;;;;;;16.70;48.01;99420.50;4481649;32;34384;-88
2022/10/04 02:07:15;;;;;;;;;;;;;;;16.66;47.96;99413.56;4467476;32;34819;-85
2022/10/04 02:09:43;;;;;;;;;;;;;;;16.94;47.35;99412.50;4466991;32;33569;-86
2022/10/04 02:12:15;;;;;;;;;;;;;;;17.06;47.04;99411.50;4467684;32;32682;-85
2022/10/04 02:14:43;;;;;;;;;;;;;;;16.94;47.50;99415.09;4482412;32;33906;-87
2022/10/04 02:17:10;;;;;;;;;;;;;;;16.87;47.50;99421.28;4469392;32;33767;-86
2022/10/04 02:19:38;;;;;;;;;;;;;;;17.27;46.46;99416.53;4483378;32;33318;-86
2022/10/04 02:22:06;;;;;;;;;;;;;;;17.29;46.36;99418.25;4470362;32;33670;-85
2022/10/04 02:24:35;;;;;;;;;;;;;;;17.13;46.66;99420.19;4469692;32;34364;-85
2022/10/04 02:27:02;;;;;;;;;;;;;;;17.37;46.05;99419.91;4469382;32;35520;-88
2022/10/04 02:29:29;;;;;;;;;;;;;;;17.36;45.97;99418.19;4468866;32;34227;-84
2022/10/04 02:34:44;;;;;;;;;;;;;;;17.62;45.69;99420.50;4471779;32;34929;-86
2022/10/04 02:37:11;;;;;;;;;;;;;;;16.80;47.09;99430.06;4470085;32;34743;-85
2022/10/04 02:39:43;;;;;;;;;;;;;;;17.82;44.78;99422.91;4469007;32;33657;-85
2022/10/04 02:42:11;;;;;;;;;;;;;;;17.31;46.32;99425.19;4469333;32;34614;-88
2022/10/04 02:44:46;;;;;;;;;;;;;;;17.66;45.33;99423.97;4457048;32;33967;-86
2022/10/04 02:47:16;;;;;;;;;;;;;;;17.55;45.84;99417.97;4470147;32;33720;-87
2022/10/04 02:50:00;;;;;;;;;;;;;;;17.49;45.95;99422.37;4483372;32;33103;-85
2022/10/04 02:52:38;;;;;;;;;;;;;;;16.41;48.93;99431.19;4483889;32;33804;-86
2022/10/04 02:55:13;;;;;;;;;;;;;;;17.20;46.80;99424.47;4469087;32;34143;-89
2022/10/04 02:57:41;;;;;;;;;;;;;;;17.34;46.41;99429.56;4461322;32;35070;-85
2022/10/04 03:00:12;;;;;;;;;;;;;;;16.89;47.50;99421.25;4468945;32;32903;-85
2022/10/04 03:02:40;;;;;;;;;;;;;;;16.93;47.71;99417.72;4457403;32;34219;-88
2022/10/04 03:05:07;;;;;;;;;;;;;;;17.45;46.46;99412.81;4483496;32;34963;-89
2022/10/04 03:07:35;;;;;;;;;;;;;;;16.86;47.88;99422.16;4468356;32;33812;-89
2022/10/04 03:10:06;;;;;;;;;;;;;;;17.27;46.85;99413.91;4483120;32;32762;-85
2022/10/04 03:12:33;;;;;;;;;;;;;;;16.81;48.07;99423.94;4483385;32;34639;-89
2022/10/04 03:15:01;;;;;;;;;;;;;;;16.79;48.02;99420.47;4483137;32;35213;-86
2022/10/04 03:17:28;;;;;;;;;;;;;;;17.04;47.11;99413.25;4483325;32;34169;-86
2022/10/04 03:19:56;;;;;;;;;;;;;;;17.04;47.42;99418.50;4483316;32;33499;-86
2022/10/04 03:22:24;;;;;;;;;;;;;;;17.26;46.79;99416.53;4469479;32;34038;-85
2022/10/04 03:24:52;;;;;;;;;;;;;;;16.45;49.17;99414.59;4483383;32;34325;-85
2022/10/04 03:27:20;;;;;;;;;;;;;;;16.89;48.06;99411.63;4478499;32;34335;-87
2022/10/04 03:29:49;;;;;;;;;;;;;;;17.36;46.64;99415.56;4483722;32;34088;-88
2022/10/04 03:32:16;;;;;;;;;;;;;;;16.59;48.58;99427.56;4483352;32;34107;-87
2022/10/04 03:34:50;;;;;;;;;;;;;;;16.77;48.23;99430.06;4468709;32;34385;-89
2022/10/04 03:37:20;;;;;;;;;;;;;;;17.15;47.27;99428.87;4468989;32;33236;-84
2022/10/04 03:39:48;;;;;;;;;;;;;;;16.46;49.00;99429.41;4483489;32;34014;-88
2022/10/04 03:42:16;;;;;;;;;;;;;;;16.41;49.11;99425.97;4468539;32;34133;-86
2022/10/04 03:44:44;;;;;;;;;;;;;;;16.27;49.61;99433.91;4468137;32;33977;-86
2022/10/04 03:47:12;;;;;;;;;;;;;;;16.46;48.84;99427.66;4468394;32;33679;-88
2022/10/04 03:49:39;;;;;;;;;;;;;;;15.85;50.52;99428.00;4469573;32;33936;-89
2022/10/04 03:52:08;;;;;;;;;;;;;;;16.84;47.94;99433.53;4468184;32;34967;-85
2022/10/04 03:54:35;;;;;;;;;;;;;;;16.94;47.77;99429.94;4461262;32;33798;-85
2022/10/04 03:57:02;;;;;;;;;;;;;;;16.20;49.74;99429.56;4469181;32;34853;-84
2022/10/04 03:59:30;;;;;;;;;;;;;;;16.05;49.90;99436.63;4468416;32;33415;-87
2022/10/04 04:02:02;;;;;;;;;;;;;;;16.09;49.98;99432.25;4480019;32;34016;-87
2022/10/04 04:04:35;;;;;;;;;;;;;;;16.44;48.84;99429.44;4483274;32;34946;-84
2022/10/04 04:07:06;;;;;;;;;;;;;;;15.49;51.58;99423.75;4482775;32;34084;-88
2022/10/04 04:09:42;;;;;;;;;;;;;;;15.69;51.42;99426.34;4464335;32;33565;-89
2022/10/04 04:12:12;;;;;;;;;;;;;;;16.45;49.18;99427.69;4482577;32;33809;-86
2022/10/04 04:14:40;;;;;;;;;;;;;;;16.52;48.81;99432.88;4469142;32;34468;-88
2022/10/04 04:17:28;;;;;;;;;;;;;;;16.85;48.48;99430.88;4466774;32;34172;-89
2022/10/04 04:19:57;;;;;;;;;;;;;;;16.86;47.90;99432.62;4483049;32;32683;-84
2022/10/04 04:22:30;;;;;;;;;;;;;;;16.90;47.92;99431.72;4468333;32;33795;-85
2022/10/04 04:24:58;;;;;;;;;;;;;;;17.14;47.21;99433.25;4482571;32;34301;-87
2022/10/04 04:27:25;;;;;;;;;;;;;;;16.88;47.87;99440.47;4468230;32;34080;-85
2022/10/04 04:29:57;;;;;;;;;;;;;;;16.60;48.61;99450.28;4468757;32;33441;-87
2022/10/04 04:32:27;;;;;;;;;;;;;;;16.63;48.58;99439.75;4467862;32;33795;-90
2022/10/04 04:34:59;;;;;;;;;;;;;;;16.60;48.60;99447.66;4467531;32;35137;-85
2022/10/04 04:37:26;;;;;;;;;;;;;;;16.77;48.12;99451.03;4473694;32;34941;-86
2022/10/04 04:39:54;;;;;;;;;;;;;;;16.89;48.23;99456.16;4481842;32;34222;-87
2022/10/04 04:42:24;;;;;;;;;;;;;;;16.80;48.18;99460.63;4483208;32;34694;-85
2022/10/04 04:44:52;;;;;;;;;;;;;;;16.89;47.91;99458.78;4468078;32;35132;-83
2022/10/04 04:47:39;;;;;;;;;;;;;;;17.59;46.14;99456.38;4467966;32;34808;-87
2022/10/04 04:50:14;;;;;;;;;;;;;;;16.84;47.97;99464.94;4468865;32;33362;-89
2022/10/04 04:52:49;;;;;;;;;;;;;;;17.50;46.26;99452.97;4468845;32;34944;-87
2022/10/04 04:55:20;;;;;;;;;;;;;;;17.53;46.14;99454.69;4468934;32;35053;-88
2022/10/04 04:57:47;;;;;;;;;;;;;;;16.96;47.86;99454.38;4467628;32;34334;-90
2022/10/04 05:00:16;;;;;;;;;;;;;;;16.58;48.93;99468.56;4481412;32;32850;-87
2022/10/04 05:02:54;;;;;;;;;;;;;;;16.59;49.15;99470.31;4467689;32;34824;-86
2022/10/04 05:05:26;;;;;;;;;;;;;;;16.95;48.10;99471.84;4482993;32;34901;-87
2022/10/04 05:08:08;;;;;;;;;;;;;;;16.58;49.31;99475.56;4468477;32;33854;-90
2022/10/04 05:10:36;;;;;;;;;;;;;;;16.60;48.96;99482.53;4467050;32;34128;-87
2022/10/04 05:13:03;;;;;;;;;;;;;;;16.97;48.53;99482.28;4452412;32;33832;-89
2022/10/04 05:15:31;;;;;;;;;;;;;;;16.38;49.74;99483.56;4457029;32;33932;-90
2022/10/04 05:17:58;;;;;;;;;;;;;;;16.40;50.28;99482.66;4468914;32;34063;-87
2022/10/04 05:20:26;;;;;;;;;;;;;;;16.58;49.99;99486.91;4468713;32;33462;-87
2022/10/04 05:22:53;;;;;;;;;;;;;;;16.86;49.39;99487.62;4482735;32;33885;-87
2022/10/04 05:25:24;;;;;;;;;;;;;;;17.12;48.70;99499.63;4482667;32;34288;-90
2022/10/04 05:27:51;;;;;;;;;;;;;;;16.69;49.68;99497.31;4468501;32;33896;-90
2022/10/04 05:30:19;;;;;;;;;;;;;;;16.45;50.68;99499.22;4468744;32;33204;-91
2022/10/04 05:32:49;;;;;;;;;;;;;;;16.77;49.88;99501.62;4478860;32;35026;-87
2022/10/04 05:35:18;;;;;;;;;;;;;;;16.68;50.38;99499.06;4467504;32;34232;-89
2022/10/04 05:37:45;;;;;;;;;;;;;;;16.73;50.53;99506.88;4468642;32;34557;-87
2022/10/04 05:40:12;;;;;;;;;;;;;;;17.44;48.76;99515.06;4482826;32;32964;-90
2022/10/04 05:42:44;;;;;;;;;;;;;;;17.44;48.96;99505.47;4482254;32;34079;-87
2022/10/04 05:45:11;;;;;;;;;;;;;;;16.71;50.79;99512.13;4452966;32;35151;-87
2022/10/04 05:47:38;;;;;;;;;;;;;;;16.62;51.14;99516.53;4466708;32;35056;-88
2022/10/04 05:50:06;;;;;;;;;;;;;;;16.90;50.66;99525.12;4479985;32;34353;-86
2022/10/04 05:52:35;;;;;;;;;;;;;;;17.11;50.35;99518.84;4469661;32;33742;-88
2022/10/04 05:55:11;;;;;;;;;;;;;;;16.97;50.84;99525.09;4470609;32;34369;-86
2022/10/04 05:57:58;;;;;;;;;;;;;;;17.41;49.69;99515.97;4484163;32;34922;-88
2022/10/04 06:00:45;;;;;;;;;;;;;;;16.99;50.73;99518.06;4470587;32;34056;-88
2022/10/04 06:03:24;;;;;;;;;;;;;;;17.46;49.80;99519.44;4484474;32;33945;-87
2022/10/04 06:05:51;;;;;;;;;;;;;;;17.42;50.55;99528.19;4470321;32;34217;-86
2022/10/04 06:08:21;;;;;;;;;;;;;;;17.15;51.09;99531.03;4484508;32;35006;-89
2022/10/04 06:10:58;;;;;;;;;;;;;;;17.28;51.22;99543.19;4481556;32;33253;-86
2022/10/04 06:13:38;;;;;;;;;;;;;;;16.14;54.34;99532.50;4475274;32;33835;-88
2022/10/04 06:16:11;;;;;;;;;;;;;;;16.97;52.57;99538.19;4468732;32;34115;-89
2022/10/04 06:18:48;;;;;;;;;;;;;;;17.02;51.98;99538.13;4454411;32;34200;-89
2022/10/04 06:21:18;;;;;;;;;;;;;;;16.23;54.47;99539.44;4468906;32;33724;-86
2022/10/04 06:23:57;;;;;;;;;;;;;;;16.74;53.12;99548.81;4478523;32;34236;-87
2022/10/04 06:26:28;;;;;;;;;;;;;;;16.70;53.19;99551.41;4483252;32;35213;-87
2022/10/04 06:28:57;;;;;;;;;;;;;;;17.11;52.20;99548.53;4469968;32;34197;-88
2022/10/04 06:31:44;;;;;;;;;;;;;;;16.98;52.68;99553.00;4456719;32;32196;-86
2022/10/04 06:34:30;;;;;;;;;;;;;;;16.79;53.15;99556.63;4483959;32;34248;-88
2022/10/04 06:37:21;;;;;;;;;;;;;;;16.09;54.90;99556.91;4480272;32;35212;-88
2022/10/04 06:40:09;;;;;;;;;;;;;;;17.06;52.63;99560.81;4455461;32;34079;-88
2022/10/04 06:42:43;;;;;;;;;;;;;;;16.70;53.47;99557.50;4484001;32;33264;-87
2022/10/04 06:45:10;;;;;;;;;;;;;;;17.18;52.22;99559.84;4484075;32;33524;-87
2022/10/04 06:47:59;;;;;;;;;;;;;;;17.45;51.77;99564.84;4484265;32;34844;-87
2022/10/04 06:50:26;;;;;;;;;;;;;;;17.00;53.47;99568.69;4470071;32;33940;-86
2022/10/04 06:52:53;;;;;;;;;;;;;;;16.55;54.76;99568.06;4484192;32;34147;-89
2022/10/04 06:55:39;;;;;;;;;;;;;;;17.50;52.09;99568.31;4483928;32;34676;-86
2022/10/04 06:58:10;;;;;;;;;;;;;;;17.76;51.42;99577.72;4484055;32;34389;-88
2022/10/04 07:00:44;;;;;;;;;;;;;;;17.88;51.39;99568.84;4483897;32;34223;-88
2022/10/04 07:03:22;;;;;;;;;;;;;;;17.92;51.45;99570.56;4484023;32;34244;-94
2022/10/04 07:06:15;;;;;;;;;;;;;;;17.51;52.45;99574.44;4456872;32;33253;-89
2022/10/04 07:08:47;;;;;;;;;;;;;;;18.34;50.15;99561.34;4481416;31;35358;-92
2022/10/04 07:11:15;;;;;;;;;;;;;;;17.35;52.56;99576.31;4469504;32;34949;-91
2022/10/04 07:13:43;;;;;;;;;;;;;;;16.48;54.91;99580.31;4469896;32;34296;-85
2022/10/04 07:16:30;;;;;;;;;;;;;;;17.53;52.26;99577.88;4484022;32;34999;-92
2022/10/04 07:19:16;;;;;;;;;;;;;;;17.94;50.69;99574.91;4473211;32;34835;-92
2022/10/04 07:21:59;;;;;;;;;;;;;;;17.86;51.07;99586.38;4469916;32;34064;-88
2022/10/04 07:24:31;;;;;;;;;;;;;;;17.79;51.08;99590.78;4483335;32;34214;-86
2022/10/04 07:26:59;;;;;;;;;;;;;;;17.03;53.39;99593.12;4483718;32;34006;-93
2022/10/04 07:29:27;;;;;;;;;;;;;;;17.33;52.10;99585.94;4468243;32;34415;-92
2022/10/04 07:32:03;;;;;;;;;;;;;;;17.75;52.06;99589.09;4454183;32;34494;-90
2022/10/04 07:34:31;;;;;;;;;;;;;;;16.81;53.80;99574.94;4453904;32;34401;-86
2022/10/04 07:36:59;;;;;;;;;;;;;;;17.82;51.54;99595.16;4454519;32;33784;-95
2022/10/04 07:39:27;;;;;;;;;;;;;;;17.71;52.11;99588.22;4454931;32;33870;-93
2022/10/04 07:41:56;;;;;;;;;;;;;;;16.91;53.61;99582.72;4454877;32;35206;-90
2022/10/04 07:44:42;;;;;;;;;;;;;;;16.81;54.17;99586.28;4454790;32;33283;-86
2022/10/04 07:47:13;;;;;;;;;;;;;;;16.85;54.44;99577.53;4461122;32;34156;-96
2022/10/04 07:49:40;;;;;;;;;;;;;;;17.23;53.82;99587.72;4484799;32;33958;-96
2022/10/04 07:52:26;;;;;;;;;;;;;;;17.91;51.53;99580.16;4469421;32;33602;-92
2022/10/04 07:55:04;;;;;;;;;;;;;;;16.07;56.32;99585.72;4483136;32;34248;-92
2022/10/04 07:57:34;;;;;;;;;;;;;;;17.71;52.61;99595.22;4469641;32;34754;-92
2022/10/04 08:00:13;;;;;;;;;;;;;;;18.29;51.13;99591.13;4483822;32;34908;-87
2022/10/04 08:02:41;;;;;;;;;;;;;;;18.13;51.08;99595.69;4469409;32;34309;-87
2022/10/04 08:05:22;;;;;;;;;;;;;;;17.69;52.74;99599.59;4483616;32;34108;-92
2022/10/04 08:07:55;;;;;;;;;;;;;;;17.40;53.20;99597.25;4483585;32;35020;-92
2022/10/04 08:10:25;;;;;;;;;;;;;;;18.29;51.45;99592.00;4483760;32;34992;-92
2022/10/04 08:13:02;;;;;;;;;;;;;;;17.94;52.63;99600.25;4482866;32;33988;-92
2022/10/04 08:15:32;;;;;;;;;;;;;;;18.80;49.51;99592.28;4483307;32;33831;-89
2022/10/04 08:18:17;;;;;;;;;;;;;;;18.44;50.16;99591.81;4483282;32;34017;-88
2022/10/04 08:20:50;;;;;;;;;;;;;;;18.92;49.35;99599.97;4483382;32;34233;-92
2022/10/04 08:23:31;;;;;;;;;;;;;;;18.95;49.34;99609.56;4483198;32;33884;-87
2022/10/04 08:26:13;;;;;;;;;;;;;;;19.17;48.73;99616.25;4483419;32;33597;-92
2022/10/04 08:31:53;;;;;;;;;;;;;;;19.36;48.18;99627.37;4471811;32;34492;-93
2022/10/04 08:34:23;;;;;;;;;;;;;;;18.57;49.25;99628.44;4483315;32;35088;-91
2022/10/04 08:36:53;;;;;;;;;;;;;;;18.66;48.94;99628.31;4483608;32;33190;-87
2022/10/04 08:39:24;;;;;;;;;;;;;;;18.81;49.43;99628.16;4483587;32;34297;-88
2022/10/04 08:41:56;;;;;;;;;;;;;;;19.95;46.64;99614.09;4483517;32;35401;-93
2022/10/04 08:44:40;;;;;;;;;;;;;;;18.89;48.52;99620.16;4483448;32;34582;-92
2022/10/04 08:47:10;;;;;;;;;;;;;;;19.19;48.00;99626.75;4483291;32;33533;-88
2022/10/04 08:49:37;;;;;;;;;;;;;;;18.98;48.76;99624.41;4483381;32;33993;-87
2022/10/04 08:52:23;;;;;;;;;;;;;;;20.00;46.67;99621.91;4483211;32;34235;-92
2022/10/04 08:55:10;;;;;;;;;;;;;;;20.10;46.31;99619.09;4483770;32;34806;-93
2022/10/04 08:57:49;;;;;;;;;;;;;;;19.08;47.56;99621.63;4483099;32;33231;-87
2022/10/04 09:00:23;;;;;;;;;;;;;;;19.92;45.53;99620.28;4469203;32;33728;-88
2022/10/04 09:02:56;;;;;;;;;;;;;;;19.68;47.13;99631.25;4482922;32;34792;-87
2022/10/04 09:05:31;;;;;;;;;;;;;;;19.62;46.54;99631.34;4483206;32;35010;-92
2022/10/04 09:08:17;;;;;;;;;;;;;;;19.10;46.83;99629.50;4468705;32;33185;-88
2022/10/04 09:10:44;;;;;;;;;;;;;;;20.16;45.09;99641.81;4483160;32;34865;-87
2022/10/04 09:13:29;;;;;;;;;;;;;;;19.86;44.29;99633.56;4483170;32;34312;-87
2022/10/04 09:16:06;;;;;;;;;;;;;;;20.20;44.70;99629.47;4483140;32;34916;-87
2022/10/04 09:18:37;;;;;;;;;;;;;;;19.78;45.40;99635.47;4455861;32;34375;-92
2022/10/04 09:21:04;;;;;;;;;;;;;;;19.54;46.60;99641.97;4482778;32;33696;-91
2022/10/04 09:23:50;;;;;;;;;;;;;;;19.12;46.49;99636.47;4482533;32;33744;-88
2022/10/04 09:26:42;;;;;;;;;;;;;;;20.22;43.27;99631.16;4482768;32;33959;-87
2022/10/04 09:29:24;;;;;;;;;;;;;;;19.73;44.47;99615.38;4473576;32;34067;-93
2022/10/04 09:31:55;;;;;;;;;;;;;;;20.65;43.42;99604.00;4482987;32;34051;-87
2022/10/04 09:34:25;;;;;;;;;;;;;;;19.19;46.00;99629.38;4482813;32;34488;-87
2022/10/04 09:37:14;;;;;;;;;;;;;;;20.14;44.22;99627.81;4482866;32;33891;-91
2022/10/04 09:39:47;;;;;;;;;;;;;;;20.33;43.14;99626.53;4482970;32;32963;-91
2022/10/04 09:42:21;;;;;;;;;;;;;;;21.13;42.29;99624.88;4482919;32;33540;-92
2022/10/04 09:45:11;;;;;;;;;;;;;;;20.43;43.44;99619.34;4482731;32;34987;-88
2022/10/04 09:48:04;;;;;;;;;;;;;;;20.40;42.32;99622.91;4472762;32;34114;-93
2022/10/04 09:50:36;;;;;;;;;;;;;;;19.86;44.41;99628.31;4452610;32;33399;-91
2022/10/04 09:53:06;;;;;;;;;;;;;;;20.10;44.06;99634.87;4482609;32;33669;-92
2022/10/04 09:55:48;;;;;;;;;;;;;;;20.26;42.94;99639.84;4482393;32;35257;-91
2022/10/04 09:58:28;;;;;;;;;;;;;;;20.01;43.63;99642.97;4468331;32;33488;-88
2022/10/04 10:00:55;;;;;;;;;;;;;;;19.70;45.56;99647.91;4468462;32;32923;-93
2022/10/04 10:03:22;;;;;;;;;;;;;;;19.28;46.15;99650.28;4482359;32;35046;-89
2022/10/04 10:06:11;;;;;;;;;;;;;;;20.23;44.35;99646.06;4482147;32;35096;-88
2022/10/04 10:09:11;;;;;;;;;;;;;;;19.64;45.53;99653.25;4468021;32;35259;-87
2022/10/04 10:14:25;;;;;;;;;;;;;;;20.13;43.81;99652.41;4482081;32;34933;-87
2022/10/04 10:16:59;;;;;;;;;;;;;;;19.81;43.50;99652.94;4482357;32;35344;-91
2022/10/04 10:19:30;;;;;;;;;;;;;;;19.79;44.22;99652.13;4468278;32;34916;-89
2022/10/04 10:22:12;;;;;;;;;;;;;;;20.13;42.79;99652.41;4482296;32;33229;-92
2022/10/04 10:24:58;;;;;;;;;;;;;;;20.75;42.24;99660.00;4482443;32;34159;-87
2022/10/04 10:27:31;;;;;;;;;;;;;;;20.14;43.54;99656.75;4482164;32;33993;-91
2022/10/04 10:30:05;;;;;;;;;;;;;;;19.85;42.60;99658.16;4482171;32;33919;-90
2022/10/04 10:32:35;;;;;;;;;;;;;;;19.72;43.77;99661.00;4467836;32;34187;-93
2022/10/04 10:35:05;;;;;;;;;;;;;;;20.30;42.31;99660.81;4467690;32;33714;-92
2022/10/04 10:37:51;;;;;;;;;;;;;;;20.06;42.39;99663.94;4484212;32;34011;-92
2022/10/04 10:40:28;;;;;;;;;;;;;;;19.63;42.18;99669.94;4484311;32;34227;-88
2022/10/04 10:42:58;;;;;;;;;;;;;;;20.12;41.45;99669.09;4469874;32;34190;-88
2022/10/04 10:45:28;;;;;;;;;;;;;;;19.50;42.95;99670.97;4484259;32;34209;-92
2022/10/04 10:48:00;;;;;;;;;;;;;;;18.96;42.36;99667.34;4483870;32;35121;-87
2022/10/04 10:50:58;;;;;;;;;;;;;;;19.98;39.25;99661.44;4457350;32;34144;-88
2022/10/04 10:53:28;;;;;;;;;;;;;;;19.53;41.93;99666.53;4471518;32;33114;-92
2022/10/04 10:56:07;;;;;;;;;;;;;;;19.38;40.86;99667.63;4469814;32;33226;-87
2022/10/04 10:58:49;;;;;;;;;;;;;;;18.92;42.67;99657.78;4470042;32;34048;-95
2022/10/04 11:01:25;;;;;;;;;;;;;;;19.61;42.48;99659.38;4484146;32;34187;-88
2022/10/04 11:03:56;;;;;;;;;;;;;;;18.79;44.37;99678.94;4483885;32;33574;-89
2022/10/04 11:06:24;;;;;;;;;;;;;;;19.05;43.60;99662.84;4484186;32;34903;-92
2022/10/04 11:09:10;;;;;;;;;;;;;;;19.42;44.21;99666.69;4484071;32;34274;-88
2022/10/04 11:11:56;;;;;;;;;;;;;;;19.18;44.80;99672.31;4484151;32;34508;-88
2022/10/04 11:14:44;;;;;;;;;;;;;;;19.07;46.01;99666.34;4483902;32;33393;-93
2022/10/04 11:17:24;;;;;;;;;;;;;;;18.84;46.44;99669.28;4484147;32;34186;-90
2022/10/04 11:20:10;;;;;;;;;;;;;;;19.30;45.10;99669.50;4484171;32;35193;-91
2022/10/04 11:22:57;;;;;;;;;;;;;;;20.32;44.36;99669.59;4484063;32;34280;-92
2022/10/04 11:25:34;;;;;;;;;;;;;;;20.16;44.17;99658.47;4483928;32;32871;-87
2022/10/04 11:28:08;;;;;;;;;;;;;;;20.36;44.55;99671.25;4469464;32;34651;-91
2022/10/04 11:31:00;;;;;;;;;;;;;;;21.17;42.45;99658.19;4483698;32;34100;-92
2022/10/04 11:33:27;;;;;;;;;;;;;;;19.77;45.90;99670.53;4474614;32;33998;-92
2022/10/04 11:36:06;;;;;;;;;;;;;;;20.39;45.62;99660.66;4484109;32;32971;-88
2022/10/04 11:38:34;;;;;;;;;;;;;;;20.89;43.46;99648.25;4483718;32;34428;-91
2022/10/04 11:41:17;;;;;;;;;;;;;;;20.22;45.17;99657.47;4483766;32;34518;-93
2022/10/04 11:44:02;;;;;;;;;;;;;;;20.96;43.76;99667.44;4457414;32;33993;-89
2022/10/04 11:46:48;;;;;;;;;;;;;;;19.98;45.68;99663.19;4483394;32;33493;-87
2022/10/04 11:49:18;;;;;;;;;;;;;;;20.60;44.82;99658.53;4483536;32;34173;-89
2022/10/04 11:52:04;;;;;;;;;;;;;;;19.60;44.63;99656.78;4484125;32;34105;-93
2022/10/04 11:54:47;;;;;;;;;;;;;;;20.51;42.58;99656.09;4483492;32;34019;-88
2022/10/04 11:57:30;;;;;;;;;;;;;;;20.15;43.58;99666.37;4470279;32;33223;-93
2022/10/04 12:00:14;;;;;;;;;;;;;;;20.22;43.11;99668.00;4469616;32;34806;-87
2022/10/04 12:02:51;;;;;;;;;;;;;;;20.58;42.31;99670.88;4469522;32;35286;-91
2022/10/04 12:05:20;;;;;;;;;;;;;;;19.84;43.88;99671.31;4483794;32;34206;-88
2022/10/04 12:07:56;;;;;;;;;;;;;;;19.74;43.52;99667.13;4469650;32;33346;-95
2022/10/04 12:10:23;;;;;;;;;;;;;;;19.61;43.45;99675.16;4483877;32;33946;-92
2022/10/04 12:13:06;;;;;;;;;;;;;;;20.16;41.36;99671.63;4484108;32;34790;-92
2022/10/04 12:15:39;;;;;;;;;;;;;;;19.07;43.55;99671.59;4483557;32;34009;-87
2022/10/04 12:18:07;;;;;;;;;;;;;;;18.76;45.07;99682.50;4469613;32;34252;-92
2022/10/04 12:20:52;;;;;;;;;;;;;;;18.52;46.33;99682.75;4483648;32;34360;-89
2022/10/04 12:23:19;;;;;;;;;;;;;;;18.14;47.10;99689.25;4483718;32;34239;-88
2022/10/04 12:25:52;;;;;;;;;;;;;;;18.75;45.34;99686.00;4483790;32;34658;-88
2022/10/04 12:28:22;;;;;;;;;;;;;;;17.87;48.31;99688.63;4483354;32;33337;-87
2022/10/04 12:30:59;;;;;;;;;;;;;;;18.16;48.18;99696.25;4469433;32;33312;-88
2022/10/04 12:33:29;;;;;;;;;;;;;;;19.24;46.65;99680.09;4483431;32;34094;-87
2022/10/04 12:35:59;;;;;;;;;;;;;;;20.09;44.74;99685.81;4483460;32;34293;-93
2022/10/04 12:38:36;;;;;;;;;;;;;;;19.70;46.15;99689.97;4483309;32;33447;-88
2022/10/04 12:41:03;;;;;;;;;;;;;;;20.67;44.56;99683.84;4483527;32;34322;-88
2022/10/04 12:43:43;;;;;;;;;;;;;;;20.60;43.73;99682.25;4483275;32;34243;-88
2022/10/04 12:46:14;;;;;;;;;;;;;;;20.06;45.44;99684.97;4483348;32;34224;-91
2022/10/04 12:48:47;;;;;;;;;;;;;;;19.67;46.70;99684.78;4469257;32;34023;-88
2022/10/04 12:51:19;;;;;;;;;;;;;;;20.35;45.17;99690.59;4483217;32;35588;-92
2022/10/04 12:54:05;;;;;;;;;;;;;;;20.24;45.83;99687.28;4483318;32;34116;-89
2022/10/04 12:56:46;;;;;;;;;;;;;;;20.29;46.13;99690.69;4483492;32;33885;-88
2022/10/04 12:59:24;;;;;;;;;;;;;;;19.96;46.20;99686.91;4482791;32;34125;-94
2022/10/04 13:02:03;;;;;;;;;;;;;;;19.09;48.07;99688.19;4483066;32;34388;-93
2022/10/04 13:04:34;;;;;;;;;;;;;;;19.74;46.40;99686.41;4483177;32;35142;-93
2022/10/04 13:07:22;;;;;;;;;;;;;;;20.16;46.89;99694.47;4469070;32;33732;-93
2022/10/04 13:10:07;;;;;;;;;;;;;;;20.25;44.73;99685.53;4443298;32;33156;-88
2022/10/04 13:13:07;;;;;;;;;;;;;;;20.43;44.35;99682.56;4482940;32;33362;-86
2022/10/04 13:15:38;;;;;;;;;;;;;;;20.18;44.06;99687.38;4483097;32;34025;-95
2022/10/04 13:18:25;;;;;;;;;;;;;;;19.66;46.12;99672.47;4482951;32;34090;-88
2022/10/04 13:20:53;;;;;;;;;;;;;;;20.13;45.07;99668.19;4482945;32;33456;-88
2022/10/04 13:23:23;;;;;;;;;;;;;;;19.70;45.40;99674.19;4483499;32;34046;-88
2022/10/04 13:25:56;;;;;;;;;;;;;;;20.11;44.81;99662.94;4482790;32;35323;-88
2022/10/04 13:28:33;;;;;;;;;;;;;;;19.61;44.80;99663.78;4482963;32;35124;-92
2022/10/04 13:31:33;;;;;;;;;;;;;;;19.95;43.83;99668.50;4468897;32;33190;-88